Turtle River, Minnesota
Current Conditions -  °F | °C
As of 9:13 AM on Friday 31 Oct 2014 (Local Time) from KBJI Reporting Station
Clear Clear  
Wind Chill: 14°   Ceiling: Unl
Heat Index: 21°   Visibility: 7mi
Dew Point: 17°   Wind: 5mph
Humidity: 87%   Direction: 320°NW
Pressure: 30.58"   Gusts: NA
Location:  47.5271°N, 94.7611°W
Report Text: KBJI 311413Z AUTO 32004KT 7SM CLR M06/M08 A3058 RMK AO2 T10621081
Loading
Personal Weather Stations






























Interactive Weather Map
Tropical Storm Tracking
New forecast layout! Learn more

10-Day Weather Forecast

Advertisements
Track Severe Weather on mobile